sensor_id;sensor_type;location;lat;lon;timestamp;P1;durP1;ratioP1;P2;durP2;ratioP2
22103;SDS011;11218;48.886;9.426;2022-09-28T00:00:58;125.30;;;76.22;;
22103;SDS011;11218;48.886;9.426;2022-09-28T00:03:32;125.13;;;76.25;;
22103;SDS011;11218;48.886;9.426;2022-09-28T00:06:00;225.02;;;104.50;;
22103;SDS011;11218;48.886;9.426;2022-09-28T00:08:28;75.97;;;54.88;;
22103;SDS011;11218;48.886;9.426;2022-09-28T00:10:56;134.88;;;82.38;;
22103;SDS011;11218;48.886;9.426;2022-09-28T00:13:24;209.18;;;101.43;;
22103;SDS011;11218;48.886;9.426;2022-09-28T00:16:02;211.02;;;102.28;;
22103;SDS011;11218;48.886;9.426;2022-09-28T00:18:31;160.80;;;87.30;;
22103;SDS011;11218;48.886;9.426;2022-09-28T00:21:02;129.85;;;81.45;;
22103;SDS011;11218;48.886;9.426;2022-09-28T00:23:31;88.28;;;64.30;;
22103;SDS011;11218;48.886;9.426;2022-09-28T00:26:03;126.10;;;78.75;;
22103;SDS011;11218;48.886;9.426;2022-09-28T00:28:31;140.45;;;84.18;;
22103;SDS011;11218;48.886;9.426;2022-09-28T00:31:05;134.05;;;77.95;;
22103;SDS011;11218;48.886;9.426;2022-09-28T00:33:34;169.60;;;92.43;;
22103;SDS011;11218;48.886;9.426;2022-09-28T00:36:03;169.25;;;90.95;;
22103;SDS011;11218;48.886;9.426;2022-09-28T00:38:30;151.32;;;86.45;;
22103;SDS011;11218;48.886;9.426;2022-09-28T00:40:58;103.68;;;69.30;;
22103;SDS011;11218;48.886;9.426;2022-09-28T00:43:26;70.65;;;52.00;;
22103;SDS011;11218;48.886;9.426;2022-09-28T00:45:55;65.50;;;48.15;;
22103;SDS011;11218;48.886;9.426;2022-09-28T00:48:28;67.53;;;49.55;;
22103;SDS011;11218;48.886;9.426;2022-09-28T00:50:59;60.60;;;44.65;;
22103;SDS011;11218;48.886;9.426;2022-09-28T00:53:31;71.85;;;52.33;;
22103;SDS011;11218;48.886;9.426;2022-09-28T00:56:01;44.83;;;30.35;;
22103;SDS011;11218;48.886;9.426;2022-09-28T00:58:34;39.33;;;28.15;;
22103;SDS011;11218;48.886;9.426;2022-09-28T01:01:04;18.13;;;4.68;;
22103;SDS011;11218;48.886;9.426;2022-09-28T01:03:34;24.15;;;5.95;;
22103;SDS011;11218;48.886;9.426;2022-09-28T01:06:02;21.52;;;4.43;;
22103;SDS011;11218;48.886;9.426;2022-09-28T01:08:31;13.70;;;2.67;;
22103;SDS011;11218;48.886;9.426;2022-09-28T01:11:00;12.27;;;2.75;;
22103;SDS011;11218;48.886;9.426;2022-09-28T01:13:29;14.35;;;3.28;;
22103;SDS011;11218;48.886;9.426;2022-09-28T01:15:58;22.95;;;4.72;;
22103;SDS011;11218;48.886;9.426;2022-09-28T01:18:36;23.85;;;17.70;;
22103;SDS011;11218;48.886;9.426;2022-09-28T01:21:09;15.55;;;3.13;;
22103;SDS011;11218;48.886;9.426;2022-09-28T01:23:43;18.10;;;7.95;;
22103;SDS011;11218;48.886;9.426;2022-09-28T01:26:50;19.38;;;8.73;;
22103;SDS011;11218;48.886;9.426;2022-09-28T01:29:27;22.98;;;16.02;;
22103;SDS011;11218;48.886;9.426;2022-09-28T01:32:02;31.23;;;21.13;;
22103;SDS011;11218;48.886;9.426;2022-09-28T01:34:38;37.67;;;26.42;;
22103;SDS011;11218;48.886;9.426;2022-09-28T01:37:09;76.43;;;53.65;;
22103;SDS011;11218;48.886;9.426;2022-09-28T01:39:39;197.70;;;98.72;;
22103;SDS011;11218;48.886;9.426;2022-09-28T01:42:11;176.02;;;93.07;;
22103;SDS011;11218;48.886;9.426;2022-09-28T01:44:42;123.75;;;76.85;;
22103;SDS011;11218;48.886;9.426;2022-09-28T01:47:13;138.30;;;80.55;;
22103;SDS011;11218;48.886;9.426;2022-09-28T01:49:42;84.05;;;59.22;;
22103;SDS011;11218;48.886;9.426;2022-09-28T01:52:14;181.02;;;95.13;;
22103;SDS011;11218;48.886;9.426;2022-09-28T01:54:45;159.13;;;87.78;;
22103;SDS011;11218;48.886;9.426;2022-09-28T01:57:19;69.32;;;50.00;;
22103;SDS011;11218;48.886;9.426;2022-09-28T01:59:51;107.45;;;70.30;;
22103;SDS011;11218;48.886;9.426;2022-09-28T02:02:23;134.85;;;82.65;;
22103;SDS011;11218;48.886;9.426;2022-09-28T02:04:56;70.72;;;51.53;;
22103;SDS011;11218;48.886;9.426;2022-09-28T02:07:27;78.90;;;55.30;;
22103;SDS011;11218;48.886;9.426;2022-09-28T02:09:58;177.80;;;94.68;;
22103;SDS011;11218;48.886;9.426;2022-09-28T02:12:31;111.13;;;73.30;;
22103;SDS011;11218;48.886;9.426;2022-09-28T02:15:04;106.50;;;70.63;;
22103;SDS011;11218;48.886;9.426;2022-09-28T02:17:38;144.13;;;85.45;;
22103;SDS011;11218;48.886;9.426;2022-09-28T02:20:07;73.88;;;52.22;;
22103;SDS011;11218;48.886;9.426;2022-09-28T02:22:37;36.67;;;22.17;;
22103;SDS011;11218;48.886;9.426;2022-09-28T02:25:09;21.58;;;7.40;;
22103;SDS011;11218;48.886;9.426;2022-09-28T02:27:41;22.88;;;7.38;;
22103;SDS011;11218;48.886;9.426;2022-09-28T02:30:11;89.68;;;62.97;;
22103;SDS011;11218;48.886;9.426;2022-09-28T02:32:41;24.40;;;8.68;;
22103;SDS011;11218;48.886;9.426;2022-09-28T02:35:12;20.30;;;4.85;;
22103;SDS011;11218;48.886;9.426;2022-09-28T02:37:42;23.38;;;7.65;;
22103;SDS011;11218;48.886;9.426;2022-09-28T02:40:13;36.58;;;27.63;;
22103;SDS011;11218;48.886;9.426;2022-09-28T02:42:45;39.22;;;20.80;;
22103;SDS011;11218;48.886;9.426;2022-09-28T02:45:23;30.58;;;12.73;;
22103;SDS011;11218;48.886;9.426;2022-09-28T02:48:01;29.80;;;11.45;;
22103;SDS011;11218;48.886;9.426;2022-09-28T02:50:35;17.25;;;5.22;;
22103;SDS011;11218;48.886;9.426;2022-09-28T02:53:19;33.53;;;12.95;;
22103;SDS011;11218;48.886;9.426;2022-09-28T02:55:58;44.28;;;22.10;;
22103;SDS011;11218;48.886;9.426;2022-09-28T02:58:37;65.50;;;49.60;;
22103;SDS011;11218;48.886;9.426;2022-09-28T03:01:14;36.13;;;31.05;;
22103;SDS011;11218;48.886;9.426;2022-09-28T03:03:47;56.92;;;43.33;;
22103;SDS011;11218;48.886;9.426;2022-09-28T03:06:19;27.73;;;18.77;;
22103;SDS011;11218;48.886;9.426;2022-09-28T03:08:51;36.08;;;20.08;;
22103;SDS011;11218;48.886;9.426;2022-09-28T03:11:24;18.33;;;6.20;;
22103;SDS011;11218;48.886;9.426;2022-09-28T03:13:56;33.65;;;14.45;;
22103;SDS011;11218;48.886;9.426;2022-09-28T03:16:24;22.92;;;6.20;;
22103;SDS011;11218;48.886;9.426;2022-09-28T03:18:53;20.33;;;6.72;;
22103;SDS011;11218;48.886;9.426;2022-09-28T03:21:21;28.77;;;15.98;;
22103;SDS011;11218;48.886;9.426;2022-09-28T03:23:49;25.83;;;7.20;;
22103;SDS011;11218;48.886;9.426;2022-09-28T03:26:17;15.90;;;5.40;;
22103;SDS011;11218;48.886;9.426;2022-09-28T03:28:45;53.80;;;11.57;;
22103;SDS011;11218;48.886;9.426;2022-09-28T03:31:14;28.60;;;17.52;;
22103;SDS011;11218;48.886;9.426;2022-09-28T03:33:42;102.05;;;67.22;;
22103;SDS011;11218;48.886;9.426;2022-09-28T03:36:10;87.60;;;60.72;;
22103;SDS011;11218;48.886;9.426;2022-09-28T03:38:40;154.40;;;88.05;;
22103;SDS011;11218;48.886;9.426;2022-09-28T03:41:08;131.18;;;82.22;;
22103;SDS011;11218;48.886;9.426;2022-09-28T03:43:36;100.32;;;70.03;;
22103;SDS011;11218;48.886;9.426;2022-09-28T03:46:04;106.60;;;71.93;;
22103;SDS011;11218;48.886;9.426;2022-09-28T03:48:34;104.75;;;71.15;;
22103;SDS011;11218;48.886;9.426;2022-09-28T03:51:03;149.98;;;89.13;;
22103;SDS011;11218;48.886;9.426;2022-09-28T03:53:34;109.03;;;72.97;;
22103;SDS011;11218;48.886;9.426;2022-09-28T03:56:02;78.80;;;58.00;;
22103;SDS011;11218;48.886;9.426;2022-09-28T03:58:32;55.55;;;38.65;;
22103;SDS011;11218;48.886;9.426;2022-09-28T04:01:00;41.50;;;29.40;;
22103;SDS011;11218;48.886;9.426;2022-09-28T04:03:29;50.65;;;35.67;;
22103;SDS011;11218;48.886;9.426;2022-09-28T04:05:59;147.93;;;87.88;;
22103;SDS011;11218;48.886;9.426;2022-09-28T04:08:27;106.90;;;72.25;;
22103;SDS011;11218;48.886;9.426;2022-09-28T04:10:55;193.40;;;100.32;;
22103;SDS011;11218;48.886;9.426;2022-09-28T04:13:23;138.63;;;83.95;;
22103;SDS011;11218;48.886;9.426;2022-09-28T04:15:52;132.95;;;81.35;;
22103;SDS011;11218;48.886;9.426;2022-09-28T04:18:20;164.80;;;93.45;;
22103;SDS011;11218;48.886;9.426;2022-09-28T04:20:56;121.47;;;76.90;;
22103;SDS011;11218;48.886;9.426;2022-09-28T04:23:29;196.63;;;99.53;;
22103;SDS011;11218;48.886;9.426;2022-09-28T04:25:57;53.20;;;43.17;;
22103;SDS011;11218;48.886;9.426;2022-09-28T04:28:25;150.80;;;86.75;;
22103;SDS011;11218;48.886;9.426;2022-09-28T04:31:12;64.43;;;44.92;;
22103;SDS011;11218;48.886;9.426;2022-09-28T04:33:41;95.63;;;55.90;;
22103;SDS011;11218;48.886;9.426;2022-09-28T04:36:11;81.75;;;53.45;;
22103;SDS011;11218;48.886;9.426;2022-09-28T04:38:39;42.30;;;29.73;;
22103;SDS011;11218;48.886;9.426;2022-09-28T04:41:18;66.07;;;48.92;;
22103;SDS011;11218;48.886;9.426;2022-09-28T04:43:48;174.85;;;92.57;;
22103;SDS011;11218;48.886;9.426;2022-09-28T04:46:16;185.05;;;95.72;;
22103;SDS011;11218;48.886;9.426;2022-09-28T04:48:44;155.40;;;90.30;;
22103;SDS011;11218;48.886;9.426;2022-09-28T04:51:13;178.95;;;93.85;;
22103;SDS011;11218;48.886;9.426;2022-09-28T04:53:41;150.15;;;84.78;;
22103;SDS011;11218;48.886;9.426;2022-09-28T04:56:10;121.20;;;78.03;;
22103;SDS011;11218;48.886;9.426;2022-09-28T04:58:39;109.55;;;70.78;;
22103;SDS011;11218;48.886;9.426;2022-09-28T05:01:09;98.00;;;66.10;;
22103;SDS011;11218;48.886;9.426;2022-09-28T05:03:38;71.70;;;51.00;;
22103;SDS011;11218;48.886;9.426;2022-09-28T05:06:06;84.32;;;59.20;;
22103;SDS011;11218;48.886;9.426;2022-09-28T05:08:36;64.68;;;44.60;;
22103;SDS011;11218;48.886;9.426;2022-09-28T05:11:04;45.53;;;34.40;;
22103;SDS011;11218;48.886;9.426;2022-09-28T05:13:33;72.85;;;52.65;;
22103;SDS011;11218;48.886;9.426;2022-09-28T05:16:07;98.55;;;66.97;;
22103;SDS011;11218;48.886;9.426;2022-09-28T05:18:38;84.35;;;59.72;;
22103;SDS011;11218;48.886;9.426;2022-09-28T05:21:08;71.45;;;55.55;;
22103;SDS011;11218;48.886;9.426;2022-09-28T05:23:39;37.13;;;24.80;;
22103;SDS011;11218;48.886;9.426;2022-09-28T05:26:07;23.35;;;17.13;;
22103;SDS011;11218;48.886;9.426;2022-09-28T05:28:35;25.73;;;8.88;;
22103;SDS011;11218;48.886;9.426;2022-09-28T05:31:03;29.88;;;14.95;;
22103;SDS011;11218;48.886;9.426;2022-09-28T05:33:32;27.40;;;16.10;;
22103;SDS011;11218;48.886;9.426;2022-09-28T05:36:00;35.72;;;20.02;;
22103;SDS011;11218;48.886;9.426;2022-09-28T05:38:28;48.92;;;34.10;;
22103;SDS011;11218;48.886;9.426;2022-09-28T05:40:58;38.72;;;20.05;;
22103;SDS011;11218;48.886;9.426;2022-09-28T05:43:31;41.72;;;29.42;;
22103;SDS011;11218;48.886;9.426;2022-09-28T05:45:59;16.48;;;4.50;;
22103;SDS011;11218;48.886;9.426;2022-09-28T05:48:27;21.05;;;4.50;;
22103;SDS011;11218;48.886;9.426;2022-09-28T05:50:55;18.33;;;4.15;;
22103;SDS011;11218;48.886;9.426;2022-09-28T05:53:25;25.15;;;4.88;;
22103;SDS011;11218;48.886;9.426;2022-09-28T05:55:56;21.95;;;4.60;;
22103;SDS011;11218;48.886;9.426;2022-09-28T05:58:26;19.77;;;4.32;;
22103;SDS011;11218;48.886;9.426;2022-09-28T06:00:54;34.15;;;6.80;;
22103;SDS011;11218;48.886;9.426;2022-09-28T06:03:23;24.08;;;5.07;;
22103;SDS011;11218;48.886;9.426;2022-09-28T06:05:51;17.67;;;3.88;;
22103;SDS011;11218;48.886;9.426;2022-09-28T06:08:19;31.35;;;6.18;;
22103;SDS011;11218;48.886;9.426;2022-09-28T06:10:47;38.10;;;7.30;;
22103;SDS011;11218;48.886;9.426;2022-09-28T06:13:16;28.88;;;5.50;;
22103;SDS011;11218;48.886;9.426;2022-09-28T06:15:44;24.08;;;4.57;;
22103;SDS011;11218;48.886;9.426;2022-09-28T06:18:12;25.33;;;5.10;;
22103;SDS011;11218;48.886;9.426;2022-09-28T06:20:40;18.52;;;3.92;;
22103;SDS011;11218;48.886;9.426;2022-09-28T06:23:08;26.70;;;5.70;;
22103;SDS011;11218;48.886;9.426;2022-09-28T06:25:37;29.75;;;7.28;;
22103;SDS011;11218;48.886;9.426;2022-09-28T06:28:05;23.73;;;6.45;;
22103;SDS011;11218;48.886;9.426;2022-09-28T06:30:37;24.83;;;6.72;;
22103;SDS011;11218;48.886;9.426;2022-09-28T06:33:05;27.83;;;7.22;;
22103;SDS011;11218;48.886;9.426;2022-09-28T06:35:34;17.65;;;4.93;;
22103;SDS011;11218;48.886;9.426;2022-09-28T06:38:03;24.30;;;6.20;;
22103;SDS011;11218;48.886;9.426;2022-09-28T06:40:31;19.17;;;5.43;;
22103;SDS011;11218;48.886;9.426;2022-09-28T06:43:00;30.15;;;8.95;;
22103;SDS011;11218;48.886;9.426;2022-09-28T06:45:30;23.83;;;6.55;;
22103;SDS011;11218;48.886;9.426;2022-09-28T06:47:59;17.48;;;4.95;;
22103;SDS011;11218;48.886;9.426;2022-09-28T06:50:28;19.02;;;5.47;;
22103;SDS011;11218;48.886;9.426;2022-09-28T06:52:57;34.65;;;7.43;;
22103;SDS011;11218;48.886;9.426;2022-09-28T06:55:26;29.77;;;6.97;;
22103;SDS011;11218;48.886;9.426;2022-09-28T06:57:57;22.13;;;5.60;;
22103;SDS011;11218;48.886;9.426;2022-09-28T07:00:25;23.23;;;11.77;;
22103;SDS011;11218;48.886;9.426;2022-09-28T07:02:53;19.63;;;9.75;;
22103;SDS011;11218;48.886;9.426;2022-09-28T07:05:23;45.60;;;22.75;;
22103;SDS011;11218;48.886;9.426;2022-09-28T07:07:52;50.13;;;33.50;;
22103;SDS011;11218;48.886;9.426;2022-09-28T07:10:21;36.38;;;25.38;;
22103;SDS011;11218;48.886;9.426;2022-09-28T07:12:49;25.95;;;8.73;;
22103;SDS011;11218;48.886;9.426;2022-09-28T07:15:18;28.30;;;8.45;;
22103;SDS011;11218;48.886;9.426;2022-09-28T07:17:48;43.28;;;20.15;;
22103;SDS011;11218;48.886;9.426;2022-09-28T07:20:28;29.05;;;12.27;;
22103;SDS011;11218;48.886;9.426;2022-09-28T07:22:57;21.50;;;7.35;;
22103;SDS011;11218;48.886;9.426;2022-09-28T07:25:43;19.52;;;10.05;;
22103;SDS011;11218;48.886;9.426;2022-09-28T07:28:13;38.75;;;12.20;;
22103;SDS011;11218;48.886;9.426;2022-09-28T07:30:41;33.33;;;13.60;;
22103;SDS011;11218;48.886;9.426;2022-09-28T07:33:10;50.30;;;25.38;;
22103;SDS011;11218;48.886;9.426;2022-09-28T07:35:41;55.97;;;38.03;;
22103;SDS011;11218;48.886;9.426;2022-09-28T07:38:17;49.25;;;21.13;;
22103;SDS011;11218;48.886;9.426;2022-09-28T07:40:45;52.15;;;28.63;;
22103;SDS011;11218;48.886;9.426;2022-09-28T07:43:30;32.55;;;23.52;;
22103;SDS011;11218;48.886;9.426;2022-09-28T07:45:59;50.92;;;32.70;;
22103;SDS011;11218;48.886;9.426;2022-09-28T07:48:26;39.40;;;27.30;;
22103;SDS011;11218;48.886;9.426;2022-09-28T07:51:04;34.13;;;18.38;;
22103;SDS011;11218;48.886;9.426;2022-09-28T07:53:33;20.63;;;12.57;;
22103;SDS011;11218;48.886;9.426;2022-09-28T07:56:04;39.13;;;11.30;;
22103;SDS011;11218;48.886;9.426;2022-09-28T07:58:34;36.03;;;11.57;;
22103;SDS011;11218;48.886;9.426;2022-09-28T08:01:04;34.35;;;11.48;;
22103;SDS011;11218;48.886;9.426;2022-09-28T08:03:33;33.83;;;11.80;;
22103;SDS011;11218;48.886;9.426;2022-09-28T08:06:02;40.55;;;21.80;;
22103;SDS011;11218;48.886;9.426;2022-09-28T08:08:33;51.25;;;33.47;;
22103;SDS011;11218;48.886;9.426;2022-09-28T08:11:01;54.00;;;31.90;;
22103;SDS011;11218;48.886;9.426;2022-09-28T08:13:29;35.88;;;26.00;;
22103;SDS011;11218;48.886;9.426;2022-09-28T08:15:59;41.90;;;25.42;;
22103;SDS011;11218;48.886;9.426;2022-09-28T08:18:28;59.10;;;46.38;;
22103;SDS011;11218;48.886;9.426;2022-09-28T08:20:56;116.80;;;75.80;;
22103;SDS011;11218;48.886;9.426;2022-09-28T08:23:42;85.63;;;57.55;;
22103;SDS011;11218;48.886;9.426;2022-09-28T08:26:10;92.10;;;63.95;;
22103;SDS011;11218;48.886;9.426;2022-09-28T08:28:41;118.10;;;75.05;;
22103;SDS011;11218;48.886;9.426;2022-09-28T08:31:10;49.42;;;42.22;;
22103;SDS011;11218;48.886;9.426;2022-09-28T08:33:38;51.70;;;43.05;;
22103;SDS011;11218;48.886;9.426;2022-09-28T08:36:08;68.47;;;49.08;;
22103;SDS011;11218;48.886;9.426;2022-09-28T08:38:36;86.40;;;58.30;;
22103;SDS011;11218;48.886;9.426;2022-09-28T08:43:52;50.10;;;28.52;;
22103;SDS011;11218;48.886;9.426;2022-09-28T08:46:37;49.83;;;32.97;;
22103;SDS011;11218;48.886;9.426;2022-09-28T08:49:09;61.00;;;47.45;;
22103;SDS011;11218;48.886;9.426;2022-09-28T08:51:52;80.72;;;56.70;;
22103;SDS011;11218;48.886;9.426;2022-09-28T08:54:25;51.35;;;39.55;;
22103;SDS011;11218;48.886;9.426;2022-09-28T08:56:59;80.43;;;57.03;;
22103;SDS011;11218;48.886;9.426;2022-09-28T08:59:30;29.85;;;24.13;;
22103;SDS011;11218;48.886;9.426;2022-09-28T09:02:10;28.70;;;11.35;;
22103;SDS011;11218;48.886;9.426;2022-09-28T09:04:41;29.52;;;12.05;;
22103;SDS011;11218;48.886;9.426;2022-09-28T09:07:14;30.80;;;14.13;;
22103;SDS011;11218;48.886;9.426;2022-09-28T09:09:51;29.35;;;14.27;;
22103;SDS011;11218;48.886;9.426;2022-09-28T09:12:28;31.75;;;10.05;;
22103;SDS011;11218;48.886;9.426;2022-09-28T09:18:03;37.00;;;22.80;;
22103;SDS011;11218;48.886;9.426;2022-09-28T09:20:46;47.55;;;26.55;;
22103;SDS011;11218;48.886;9.426;2022-09-28T09:23:18;41.80;;;14.48;;
22103;SDS011;11218;48.886;9.426;2022-09-28T09:25:52;42.20;;;15.05;;
22103;SDS011;11218;48.886;9.426;2022-09-28T09:28:41;32.72;;;10.43;;
22103;SDS011;11218;48.886;9.426;2022-09-28T09:31:19;38.95;;;13.13;;
22103;SDS011;11218;48.886;9.426;2022-09-28T09:34:01;40.85;;;13.80;;
22103;SDS011;11218;48.886;9.426;2022-09-28T09:36:51;39.80;;;18.15;;
22103;SDS011;11218;48.886;9.426;2022-09-28T09:39:48;42.80;;;18.23;;
22103;SDS011;11218;48.886;9.426;2022-09-28T09:42:29;65.28;;;43.33;;
22103;SDS011;11218;48.886;9.426;2022-09-28T09:45:12;49.00;;;23.35;;
22103;SDS011;11218;48.886;9.426;2022-09-28T09:47:48;46.25;;;23.38;;
22103;SDS011;11218;48.886;9.426;2022-09-28T09:50:19;50.08;;;37.95;;
22103;SDS011;11218;48.886;9.426;2022-09-28T09:52:56;120.00;;;74.70;;
22103;SDS011;11218;48.886;9.426;2022-09-28T09:55:26;141.15;;;83.43;;
22103;SDS011;11218;48.886;9.426;2022-09-28T09:57:59;127.65;;;83.47;;
22103;SDS011;11218;48.886;9.426;2022-09-28T10:00:32;101.38;;;69.57;;
22103;SDS011;11218;48.886;9.426;2022-09-28T10:03:01;76.00;;;49.58;;
22103;SDS011;11218;48.886;9.426;2022-09-28T10:05:29;66.15;;;27.38;;
22103;SDS011;11218;48.886;9.426;2022-09-28T10:08:00;47.67;;;14.13;;
22103;SDS011;11218;48.886;9.426;2022-09-28T10:10:32;48.20;;;13.02;;
22103;SDS011;11218;48.886;9.426;2022-09-28T10:13:01;42.88;;;10.20;;
22103;SDS011;11218;48.886;9.426;2022-09-28T10:15:30;40.58;;;10.40;;
22103;SDS011;11218;48.886;9.426;2022-09-28T10:18:01;40.72;;;12.10;;
22103;SDS011;11218;48.886;9.426;2022-09-28T10:20:32;64.15;;;31.52;;
22103;SDS011;11218;48.886;9.426;2022-09-28T10:23:02;70.90;;;25.63;;
22103;SDS011;11218;48.886;9.426;2022-09-28T10:25:31;66.55;;;38.47;;
22103;SDS011;11218;48.886;9.426;2022-09-28T10:28:00;61.72;;;26.58;;
22103;SDS011;11218;48.886;9.426;2022-09-28T10:30:33;50.10;;;32.03;;
22103;SDS011;11218;48.886;9.426;2022-09-28T10:35:57;77.97;;;40.83;;
22103;SDS011;11218;48.886;9.426;2022-09-28T10:38:26;65.22;;;36.35;;
22103;SDS011;11218;48.886;9.426;2022-09-28T10:40:57;72.32;;;40.00;;
22103;SDS011;11218;48.886;9.426;2022-09-28T10:43:26;77.88;;;24.67;;
22103;SDS011;11218;48.886;9.426;2022-09-28T10:45:59;52.88;;;19.23;;
22103;SDS011;11218;48.886;9.426;2022-09-28T10:48:32;41.35;;;26.77;;
22103;SDS011;11218;48.886;9.426;2022-09-28T10:51:05;71.88;;;25.88;;
22103;SDS011;11218;48.886;9.426;2022-09-28T10:53:34;88.85;;;49.20;;
22103;SDS011;11218;48.886;9.426;2022-09-28T10:56:04;91.55;;;43.60;;
22103;SDS011;11218;48.886;9.426;2022-09-28T10:58:35;58.05;;;23.70;;
22103;SDS011;11218;48.886;9.426;2022-09-28T11:01:05;33.67;;;15.30;;
22103;SDS011;11218;48.886;9.426;2022-09-28T11:03:46;77.85;;;31.00;;
22103;SDS011;11218;48.886;9.426;2022-09-28T11:06:21;141.05;;;81.53;;
22103;SDS011;11218;48.886;9.426;2022-09-28T11:08:50;42.00;;;22.55;;
22103;SDS011;11218;48.886;9.426;2022-09-28T11:11:19;46.65;;;19.65;;
22103;SDS011;11218;48.886;9.426;2022-09-28T11:13:47;32.85;;;11.38;;
22103;SDS011;11218;48.886;9.426;2022-09-28T11:16:18;53.30;;;33.67;;
22103;SDS011;11218;48.886;9.426;2022-09-28T11:18:49;45.42;;;19.10;;
22103;SDS011;11218;48.886;9.426;2022-09-28T11:21:17;39.20;;;13.35;;
22103;SDS011;11218;48.886;9.426;2022-09-28T11:23:59;33.85;;;8.05;;
22103;SDS011;11218;48.886;9.426;2022-09-28T11:26:37;27.63;;;11.32;;
22103;SDS011;11218;48.886;9.426;2022-09-28T11:29:17;45.22;;;29.15;;
22103;SDS011;11218;48.886;9.426;2022-09-28T11:31:48;53.75;;;29.95;;
22103;SDS011;11218;48.886;9.426;2022-09-28T11:34:21;31.35;;;14.70;;
22103;SDS011;11218;48.886;9.426;2022-09-28T11:37:18;57.33;;;42.13;;
22103;SDS011;11218;48.886;9.426;2022-09-28T11:39:59;90.22;;;61.00;;
22103;SDS011;11218;48.886;9.426;2022-09-28T11:42:37;88.05;;;65.88;;
22103;SDS011;11218;48.886;9.426;2022-09-28T11:45:17;46.03;;;40.92;;
22103;SDS011;11218;48.886;9.426;2022-09-28T11:47:57;52.97;;;31.10;;
22103;SDS011;11218;48.886;9.426;2022-09-28T11:50:29;51.17;;;36.05;;
22103;SDS011;11218;48.886;9.426;2022-09-28T11:53:09;59.50;;;42.50;;
22103;SDS011;11218;48.886;9.426;2022-09-28T11:55:43;64.40;;;44.95;;
22103;SDS011;11218;48.886;9.426;2022-09-28T11:58:15;41.83;;;24.98;;
22103;SDS011;11218;48.886;9.426;2022-09-28T12:00:49;42.20;;;28.02;;
22103;SDS011;11218;48.886;9.426;2022-09-28T12:03:20;52.15;;;40.03;;
22103;SDS011;11218;48.886;9.426;2022-09-28T12:05:54;31.75;;;23.38;;
22103;SDS011;11218;48.886;9.426;2022-09-28T12:08:25;35.05;;;22.23;;
22103;SDS011;11218;48.886;9.426;2022-09-28T12:10:56;36.70;;;12.48;;
22103;SDS011;11218;48.886;9.426;2022-09-28T12:13:26;27.73;;;11.45;;
22103;SDS011;11218;48.886;9.426;2022-09-28T12:15:56;26.80;;;7.00;;
22103;SDS011;11218;48.886;9.426;2022-09-28T12:18:48;38.40;;;12.52;;
22103;SDS011;11218;48.886;9.426;2022-09-28T12:21:25;24.08;;;9.07;;
22103;SDS011;11218;48.886;9.426;2022-09-28T12:23:59;19.77;;;6.57;;
22103;SDS011;11218;48.886;9.426;2022-09-28T12:26:31;25.10;;;9.75;;
22103;SDS011;11218;48.886;9.426;2022-09-28T12:29:04;26.83;;;9.75;;
22103;SDS011;11218;48.886;9.426;2022-09-28T12:31:36;26.55;;;16.40;;
22103;SDS011;11218;48.886;9.426;2022-09-28T12:34:06;23.88;;;11.05;;
22103;SDS011;11218;48.886;9.426;2022-09-28T12:36:43;33.67;;;15.80;;
22103;SDS011;11218;48.886;9.426;2022-09-28T12:39:21;30.73;;;23.55;;
22103;SDS011;11218;48.886;9.426;2022-09-28T12:42:21;42.72;;;32.17;;
22103;SDS011;11218;48.886;9.426;2022-09-28T12:45:03;30.35;;;19.13;;
22103;SDS011;11218;48.886;9.426;2022-09-28T12:47:52;33.78;;;18.02;;
22103;SDS011;11218;48.886;9.426;2022-09-28T12:50:31;66.63;;;53.45;;
22103;SDS011;11218;48.886;9.426;2022-09-28T12:53:16;76.22;;;48.33;;
22103;SDS011;11218;48.886;9.426;2022-09-28T12:55:53;42.78;;;34.50;;
22103;SDS011;11218;48.886;9.426;2022-09-28T12:58:30;44.08;;;36.08;;
22103;SDS011;11218;48.886;9.426;2022-09-28T13:01:12;40.20;;;26.50;;
22103;SDS011;11218;48.886;9.426;2022-09-28T13:03:55;35.63;;;21.15;;
22103;SDS011;11218;48.886;9.426;2022-09-28T13:06:52;35.30;;;23.17;;
22103;SDS011;11218;48.886;9.426;2022-09-28T13:09:25;31.88;;;12.40;;
22103;SDS011;11218;48.886;9.426;2022-09-28T13:11:58;53.55;;;38.53;;
22103;SDS011;11218;48.886;9.426;2022-09-28T13:17:37;53.30;;;43.58;;
22103;SDS011;11218;48.886;9.426;2022-09-28T13:20:15;83.90;;;62.72;;
22103;SDS011;11218;48.886;9.426;2022-09-28T13:22:49;75.15;;;62.25;;
22103;SDS011;11218;48.886;9.426;2022-09-28T13:25:22;108.03;;;81.05;;
22103;SDS011;11218;48.886;9.426;2022-09-28T13:27:53;145.50;;;101.90;;
22103;SDS011;11218;48.886;9.426;2022-09-28T13:30:23;184.85;;;114.93;;
22103;SDS011;11218;48.886;9.426;2022-09-28T13:32:52;146.05;;;100.40;;
22103;SDS011;11218;48.886;9.426;2022-09-28T13:35:23;149.98;;;103.72;;
22103;SDS011;11218;48.886;9.426;2022-09-28T13:41:09;134.85;;;93.63;;
22103;SDS011;11218;48.886;9.426;2022-09-28T13:43:44;149.55;;;102.65;;
22103;SDS011;11218;48.886;9.426;2022-09-28T13:46:29;227.38;;;128.27;;
22103;SDS011;11218;48.886;9.426;2022-09-28T13:49:04;200.00;;;124.32;;
22103;SDS011;11218;48.886;9.426;2022-09-28T13:51:39;107.78;;;83.43;;
22103;SDS011;11218;48.886;9.426;2022-09-28T13:54:16;107.15;;;85.35;;
22103;SDS011;11218;48.886;9.426;2022-09-28T13:56:55;108.68;;;84.82;;
22103;SDS011;11218;48.886;9.426;2022-09-28T13:59:27;93.00;;;70.18;;
22103;SDS011;11218;48.886;9.426;2022-09-28T14:01:57;90.65;;;68.57;;
22103;SDS011;11218;48.886;9.426;2022-09-28T14:07:23;11.27;;;3.15;;
22103;SDS011;11218;48.886;9.426;2022-09-28T14:10:09;21.92;;;5.15;;
22103;SDS011;11218;48.886;9.426;2022-09-28T14:12:46;23.98;;;5.45;;
22103;SDS011;11218;48.886;9.426;2022-09-28T14:18:16;20.92;;;4.35;;
22103;SDS011;11218;48.886;9.426;2022-09-28T14:20:54;20.30;;;5.93;;
22103;SDS011;11218;48.886;9.426;2022-09-28T14:23:42;21.27;;;6.38;;
22103;SDS011;11218;48.886;9.426;2022-09-28T14:26:24;24.40;;;6.82;;
22103;SDS011;11218;48.886;9.426;2022-09-28T14:29:17;20.90;;;10.13;;
22103;SDS011;11218;48.886;9.426;2022-09-28T14:31:54;25.85;;;8.20;;
22103;SDS011;11218;48.886;9.426;2022-09-28T14:34:30;18.77;;;8.45;;
22103;SDS011;11218;48.886;9.426;2022-09-28T14:37:01;29.35;;;12.75;;
22103;SDS011;11218;48.886;9.426;2022-09-28T14:39:48;17.27;;;4.85;;
22103;SDS011;11218;48.886;9.426;2022-09-28T14:42:34;15.85;;;4.25;;
22103;SDS011;11218;48.886;9.426;2022-09-28T14:45:31;30.92;;;8.32;;
22103;SDS011;11218;48.886;9.426;2022-09-28T14:48:10;22.80;;;6.53;;
22103;SDS011;11218;48.886;9.426;2022-09-28T14:50:40;28.83;;;13.32;;
22103;SDS011;11218;48.886;9.426;2022-09-28T14:53:09;29.80;;;6.65;;
22103;SDS011;11218;48.886;9.426;2022-09-28T14:55:41;400.67;;;152.80;;
22103;SDS011;11218;48.886;9.426;2022-09-28T14:58:19;500.85;;;173.18;;
22103;SDS011;11218;48.886;9.426;2022-09-28T15:00:51;474.65;;;167.18;;
22103;SDS011;11218;48.886;9.426;2022-09-28T15:03:22;502.90;;;170.65;;
22103;SDS011;11218;48.886;9.426;2022-09-28T15:05:51;494.98;;;172.73;;
22103;SDS011;11218;48.886;9.426;2022-09-28T15:08:19;523.00;;;181.10;;
22103;SDS011;11218;48.886;9.426;2022-09-28T15:10:48;535.78;;;179.95;;
22103;SDS011;11218;48.886;9.426;2022-09-28T15:13:19;507.20;;;171.00;;